• Join FlightAware (Why Join?)
  • Login
  • US Flag 
02:27AM EDT


 

Airport Tracker/Info


-or-


 

Live Flight TrackerFlight Track Log ✈ DAL268 ✈ 11-Jun-2013 ✈ KJFK - LLBG / TLV

Flight Track Log - Related Links

Times and Time Zones

All times are in EDT time to prevent confusion due to time zone crossing. See the DAL268 flight status page for this flight to view local times or setup timezone preferences in your user account.

Time Position Orientation Groundspeed Altitude Reporting Facility
EDT Latitude Longitude Course Direction KTS MPH feet Rate Location/Type
11:41PM 40.6390 -73.7780 North  Level FlightAware
11:43PM 40.6390 -73.7770 90° East 10 12  Level FlightAware
11:44PM 40.6400 -73.7770 360° North 9 10  Level FlightAware
11:46PM 40.6000 -73.4779 90° East  Level FlightAware Approximate
11:46PM 40.6390 -73.7770 90° East 12 14  Level FlightAware
11:46PM 40.6380 -73.7760 143° Southeast 10 12 60 Level FlightAware
11:49PM 40.5843 -73.3871 108° East  Level FlightAware Approximate
11:50PM 40.5647 -73.2117 97° East  Level FlightAware Approximate
11:51PM 40.5500 -73.0306 90° East  Level FlightAware Approximate
11:52PM 40.5813 -72.8580 72° East  Level FlightAware Approximate
11:53PM 40.6360 -73.7760 217° Southwest 25 29  Level FlightAware
11:53PM 40.6350 -73.7760 180° South 22 25 60 Level FlightAware
11:54PM 40.6340 -73.7740 123° Southeast 34 39 120 Level FlightAware
11:54PM 40.6340 -73.7720 90° East 32 37 120 Level FlightAware
11:54PM 40.6330 -73.7710 143° Southeast 27 31 120 Level FlightAware
11:55PM 40.6330 -73.7700 90° East 22 25 120 Level FlightAware
11:55PM 40.6320 -73.7690 143° Southeast 17 20 120 Level FlightAware
11:56PM 40.6320 -73.7680 90° East 19 22 120 Level FlightAware
11:56PM 40.6310 -73.7680 180° South 17 20 120 Level FlightAware
11:59PM 40.5833 -73.3477 90° East  Level FlightAware Approximate
12:00AM 40.5612 -73.1724 97° East  Level FlightAware Approximate
12:00AM 40.6300 -73.7680 97° East 19 22  Level FlightAware
12:01AM 40.6300 -73.7690 270° West 360 Level FlightAware
12:01AM 40.6330 -73.7740 308° West 82 94 720 Level FlightAware
12:02AM 40.6420 -73.7950 299° West 165 190 1,140 Level FlightAware
12:02AM 40.6530 -73.8210 299° West 170 196 1,100 1,920 Climbing FlightAware
12:03AM 40.6470 -73.8460 252° West 188 216 1,700 1,200 Climbing FlightAware
12:03AM 40.6320 -73.8610 217° Southwest 216 249 2,000 780 Climbing FlightAware
12:03AM 40.6220 -73.8650 197° South 236 272 2,100 960 Climbing FlightAware
12:04AM 40.5870 -73.8480 160° South 283 326 2,700 1,080 Climbing FlightAware
12:04AM 40.5770 -73.8300 126° Southeast 298 343 2,900 1,260 Climbing FlightAware
12:04AM 40.5700 -73.8040 110° East 307 353 3,300 2,040 Climbing FlightAware
12:05AM 40.5760 -73.7090 85° East 322 371 5,300 2,400 Climbing FlightAware
12:06AM 40.5790 -73.6440 87° East 337 388 6,700 2,760 Climbing FlightAware
12:06AM 40.5780 -73.5900 91° East 339 390 7,900 2,700 Climbing FlightAware
12:07AM 40.5770 -73.4940 91° East 349 402 9,900 2,220 Climbing FlightAware
12:08AM 40.5750 -73.4070 92° East 373 429 11,100 1,680 Climbing FlightAware
12:08AM 40.5730 -73.3180 92° East 400 460 12,100 1,440 Climbing FlightAware
12:09AM 40.5810 -73.1960 85° East 428 493 13,200 1,740 Climbing FlightAware
12:10AM 40.6200 -73.1050 61° Northeast 434 499 14,700 2,160 Climbing FlightAware
12:10AM 40.6630 -73.0020 61° Northeast 445 512 16,300 1,980 Climbing FlightAware
12:11AM 40.7060 -72.9020 60° Northeast 455 524 17,600 1,800 Climbing FlightAware
12:12AM 40.7480 -72.8030 61° Northeast 465 535 18,800 1,740 Climbing FlightAware
12:12AM 40.7930 -72.6940 61° Northeast 475 547 20,100 1,620 Climbing FlightAware
12:13AM 40.8370 -72.5900 61° Northeast 486 559 21,100 1,560 Climbing FlightAware
12:14AM 40.8850 -72.4750 61° Northeast 495 570 22,300 1,500 Climbing FlightAware
12:15AM 40.9410 -72.3400 61° Northeast 505 581 23,500 1,320 Climbing FlightAware
12:15AM 40.9870 -72.2300 61° Northeast 514 592 24,400 1,380 Climbing FlightAware
12:16AM 41.0440 -72.0910 61° Northeast 523 602 25,600 1,080 Climbing FlightAware
12:17AM 41.0990 -71.9570 61° Northeast 523 602 26,200 1,320 Climbing FlightAware
12:18AM 41.1360 -71.8630 62° Northeast 533 613 27,700 1,620 Climbing FlightAware
12:18AM 41.2010 -71.7020 62° Northeast 540 621 28,500 1,200 Climbing FlightAware
12:19AM 41.2520 -71.5770 61° Northeast 541 623 29,400 1,320 Climbing FlightAware
12:20AM 41.2980 -71.4610 62° Northeast 542 624 30,300 1,080 Climbing FlightAware
12:21AM 41.3520 -71.3270 62° Northeast 544 626 31,000 480 Climbing FlightAware
12:21AM 41.3980 -71.2110 62° Northeast 543 625 31,000  Level FlightAware
12:22AM 41.4470 -71.0880 62° Northeast 540 621 31,000  Level FlightAware
12:23AM 41.5110 -70.9270 62° Northeast 537 618 31,000  Level FlightAware
12:24AM 41.5590 -70.8040 62° Northeast 538 619 31,000  Level FlightAware
12:25AM 41.6410 -70.5940 62° Northeast 538 619 31,000  Level FlightAware
12:25AM 41.6790 -70.4960 63° Northeast 538 619 31,000  Level FlightAware
12:26AM 41.7250 -70.3750 63° Northeast 538 619 31,000  Level FlightAware
12:27AM 41.8270 -70.1150 62° Northeast 31,000  Level FlightAware
12:28AM 41.8960 -69.9320 63° Northeast 537 618 31,000  Level FlightAware
12:29AM 41.9470 -69.7980 63° Northeast 537 618 31,000  Level FlightAware
12:30AM 41.9870 -69.6940 63° Northeast 537 618 31,000  Level FlightAware
12:31AM 42.0620 -69.4950 63° Northeast 537 618 31,000  Level FlightAware
12:31AM 42.1010 -69.3900 63° Northeast 537 618 31,000  Level FlightAware
12:32AM 42.1570 -69.2410 63° Northeast 535 616 31,000  Level FlightAware
12:33AM 42.1960 -69.1360 63° Northeast 536 617 31,000  Level FlightAware
12:34AM 42.2460 -69.0010 63° Northeast 534 615 31,000  Level FlightAware
12:34AM 42.2900 -68.8810 64° Northeast 535 616 31,000  Level FlightAware
12:35AM 42.3350 -68.7590 63° Northeast 535 616 31,000  Level FlightAware
12:36AM 42.3820 -68.6280 64° Northeast 535 616 31,000  Level FlightAware
12:36AM 42.4280 -68.5020 64° Northeast 533 613 31,000  Level FlightAware
12:37AM 42.4680 -68.3930 64° Northeast 533 613 31,000  Level FlightAware
12:38AM 42.5360 -68.2040 64° Northeast 531 611 31,000  Level FlightAware
12:39AM 42.5710 -68.1070 64° Northeast 531 611 31,000  Level FlightAware
12:39AM 42.6150 -67.9850 64° Northeast 531 611 31,000  Level FlightAware
12:40AM 42.6550 -67.8730 64° Northeast 531 611 31,000  Level FlightAware
12:41AM 42.6880 -67.7810 64° Northeast 531 611 31,000  Level FlightAware
12:42AM 42.7330 -67.6560 64° Northeast 531 611 31,000  Level FlightAware
12:42AM 42.7660 -67.5640 64° Northeast 531 611 31,000  Level FlightAware
12:43AM 42.8100 -67.4410 64° Northeast 531 611 31,000  Level FlightAware
12:44AM 42.8430 -67.3490 64° Northeast 531 611 31,000  Level FlightAware
12:44AM 42.8870 -67.2260 64° Northeast 531 611 31,000  Level FlightAware
12:45AM 42.9200 -67.1340 64° Northeast 531 611 31,000  Level FlightAware
12:46AM 42.9530 -67.0390 65° Northeast 531 611 31,000  Level FlightAware
12:46AM 42.9970 -66.9150 64° Northeast 531 611 31,000  Level FlightAware
12:47AM 43.1110 -66.5480 67° East 541 623 31,000  Level FlightAware
12:48AM 43.1620 -66.3940 66° East 543 625 31,000  Level FlightAware
12:49AM 43.2100 -66.2510 65° Northeast 546 628 31,000  Level FlightAware
12:49AM 43.2510 -66.1260 66° East 547 629 31,000  Level FlightAware
12:50AM 43.2880 -66.0140 66° East 547 629 31,000  Level FlightAware
12:51AM 43.3400 -65.8570 65° Northeast 547 629 31,000  Level FlightAware
12:51AM 43.3760 -65.7450 66° East 547 629 31,000  Level FlightAware
12:52AM 43.4230 -65.6020 66° East 549 632 31,000  Level FlightAware
12:53AM 43.4690 -65.4600 66° East 550 633 31,000  Level FlightAware
12:53AM 43.5110 -65.3300 66° East 551 634 31,000  Level FlightAware
12:54AM 43.5560 -65.1870 66° East 548 631 31,000  Level FlightAware
12:55AM 43.5980 -65.0560 66° East 548 631 31,000  Level FlightAware
12:56AM 43.6430 -64.9140 66° East 547 629 31,000  Level FlightAware
12:56AM 43.6800 -64.7940 67° East 548 631 31,000  Level FlightAware
12:57AM 43.7180 -64.6710 67° East 548 631 31,000  Level FlightAware
12:58AM 43.7670 -64.5130 67° East 551 634 31,000  Level FlightAware
12:59AM 43.8180 -64.3480 67° East 552 635 31,000  Level FlightAware
12:59AM 43.8620 -64.2060 67° East 555 639 31,000  Level FlightAware
01:00AM 43.9100 -64.0490 67° East 560 644 31,000  Level FlightAware
01:01AM 43.9590 -63.8870 67° East 566 651 31,000  Level FlightAware
01:02AM 44.0000 -63.7510 67° East 569 655 31,000  Level FlightAware
01:02AM 44.0360 -63.6320 67° East 570 656 31,000  Level FlightAware
01:03AM 44.0830 -63.4750 67° East 569 655 31,000  Level FlightAware
01:04AM 44.1260 -63.3300 68° East 567 652 31,000  Level FlightAware
01:04AM 44.1630 -63.2060 67° East 566 651 31,000  Level FlightAware
01:05AM 44.2040 -63.0640 68° East 566 651 31,000  Level FlightAware
01:06AM 44.2390 -62.9440 68° East 569 655 31,000  Level FlightAware
01:06AM 44.2730 -62.8260 68° East 569 655 31,000  Level FlightAware
01:07AM 44.3150 -62.6830 68° East 569 655 31,000  Level FlightAware
01:08AM 44.3460 -62.5760 68° East 569 655 31,000  Level FlightAware
01:09AM 44.3870 -62.4340 68° East 569 655 31,000  Level FlightAware
01:09AM 44.4170 -62.3290 68° East 569 655 31,000  Level FlightAware
01:10AM 44.4560 -62.1930 68° East 569 655 31,000  Level FlightAware
01:11AM 44.5080 -62.0120 68° East 569 655 31,000  Level FlightAware
01:12AM 44.5400 -61.9020 68° East 569 655 31,000  Level FlightAware
01:12AM 44.5800 -61.7620 68° East 569 655 31,000  Level FlightAware
01:13AM 44.6100 -61.6570 68° East 569 655 31,000  Level FlightAware
01:14AM 44.6510 -61.5170 68° East 569 655 31,000  Level FlightAware
01:14AM 44.6810 -61.4120 68° East 569 655 31,000  Level FlightAware
01:15AM 44.7150 -61.2930 68° East 569 655 31,000  Level FlightAware
01:17AM 44.8890 -60.5970 70° East 553 636 31,000  Level FlightAware
01:18AM 44.9280 -60.4500 69° East 555 639 31,000  Level FlightAware
01:18AM 44.9640 -60.3130 70° East 555 639 31,000  Level FlightAware
01:19AM 45.0030 -60.1630 70° East 555 639 31,000  Level FlightAware
01:20AM 45.0400 -60.0210 70° East 555 639 31,000  Level FlightAware
01:21AM 45.0750 -59.8870 70° East 556 640 31,000  Level FlightAware
01:21AM 45.1120 -59.7410 70° East 554 638 31,000  Level FlightAware
01:22AM 45.1490 -59.5990 70° East 554 638 31,000  Level FlightAware
01:23AM 45.1870 -59.4470 70° East 553 636 31,000  Level FlightAware
01:23AM 45.2210 -59.3130 70° East 552 635 31,000  Level FlightAware
01:24AM 45.2550 -59.1760 71° East 553 636 31,000  Level FlightAware
01:25AM 45.2960 -59.0100 71° East 551 634 31,000  Level FlightAware
01:25AM 45.3230 -58.9020 70° East 550 633 31,000  Level FlightAware
01:26AM 45.3600 -58.7500 71° East 550 633 31,000  Level FlightAware
01:27AM 45.3930 -58.6160 71° East 549 632 31,000  Level FlightAware
01:27AM 45.4280 -58.4710 71° East 550 633 31,000  Level FlightAware
01:28AM 45.4640 -58.3210 71° East 550 633 31,000  Level FlightAware
01:29AM 45.4950 -58.1890 71° East 550 633 31,000  Level FlightAware
01:30AM 45.5270 -58.0540 71° East 550 633 31,000  Level FlightAware
01:30AM 45.5610 -57.9140 71° East 550 633 31,000  Level FlightAware
01:31AM 45.5950 -57.7740 71° East 550 633 31,000  Level FlightAware
01:32AM 45.6200 -57.6690 71° East 550 633 31,000  Level FlightAware
01:33AM 45.6540 -57.5280 71° East 550 633 31,000  Level FlightAware
01:33AM 45.6790 -57.4230 71° East 550 633 31,000  Level FlightAware
01:34AM 45.7140 -57.2800 71° East 550 633 31,000  Level FlightAware
01:35AM 45.7390 -57.1740 71° East 550 633 31,000  Level FlightAware
01:35AM 45.7730 -57.0310 71° East 550 633 31,000  Level FlightAware
01:36AM 45.8340 -56.7010 75° East 558 642 31,000  Level FlightAware
01:37AM 45.8570 -56.5930 73° East 558 642 31,000  Level FlightAware
01:38AM 45.8880 -56.4480 73° East 558 642 31,000  Level FlightAware
01:38AM 45.9320 -56.2260 74° East 563 648 31,000  Level FlightAware
01:39AM 45.9610 -56.0840 74° East 564 649 31,000  Level FlightAware
01:40AM 46.0010 -55.8870 74° East 564 649 31,000  Level FlightAware
01:40AM 46.0250 -55.7670 74° East 564 649 31,000  Level FlightAware
01:41AM 46.0570 -55.6150 73° East 564 649 31,000  Level FlightAware
01:42AM 46.0940 -55.4190 75° East 568 654 31,000  Level FlightAware
01:43AM 46.1210 -55.2760 75° East 567 652 31,000  Level FlightAware
01:43AM 46.1520 -55.1190 74° East 569 655 31,000  Level FlightAware
01:44AM 46.1810 -54.9700 74° East 570 656 31,000  Level FlightAware
01:45AM 46.2270 -54.7250 75° East 571 657 31,000  Level FlightAware
01:46AM 46.2610 -54.5450 75° East 572 658 31,000  Level FlightAware
01:47AM 46.2890 -54.3960 75° East 573 659 31,000  Level FlightAware
01:47AM 46.3150 -54.2570 75° East 574 661 31,000  Level FlightAware
01:48AM 46.3480 -54.0790 75° East 575 662 31,000  Level FlightAware
01:49AM 46.3750 -53.9310 75° East 577 664 31,000  Level FlightAware
01:49AM 46.4050 -53.7660 75° East 578 665 31,000  Level FlightAware
01:50AM 46.4250 -53.6520 76° East 579 666 31,000  Level FlightAware
01:51AM 46.4580 -53.4670 75° East 580 667 31,000  Level FlightAware
01:51AM 46.4850 -53.3150 75° East 580 667 31,000 60 Level FlightAware
01:52AM 46.5120 -53.1620 76° East 581 669 31,100 600 Climbing FlightAware
01:53AM 46.5400 -53.0030 76° East 586 674 31,900 1,080 Climbing FlightAware
01:54AM 46.5750 -52.8000 76° East 590 679 32,800 1,020 Climbing FlightAware
01:54AM 46.6040 -52.6270 76° East 592 681 33,600 1,020 Climbing FlightAware
01:55AM 46.6310 -52.4700 76° East 592 681 34,300 960 Climbing FlightAware
01:56AM 46.6600 -52.2950 76° East 592 681 35,000 480 Climbing FlightAware
01:57AM 46.6870 -52.1300 77° East 592 681 35,000  Level FlightAware
01:57AM 46.7140 -51.9620 77° East 590 679 35,000  Level FlightAware
01:58AM 46.6667 -52.5000 78° East 543 625 35,000  Level ETMS Enhanced Traffic Management System
01:58AM 46.7000 -51.8000 78° East 590 679 35,000  Level Gander Center
01:58AM 46.7400 -51.7970 77° East 589 678 35,000  Level FlightAware
01:59AM 46.7650 -51.6450 76° East 588 677 35,000  Level FlightAware
01:59AM 46.7880 -51.4990 77° East 589 678 35,000  Level FlightAware
02:00AM 46.8130 -51.3420 77° East 590 679 35,000  Level FlightAware
02:01AM 46.8410 -51.1570 77° East 591 680 35,000  Level FlightAware
02:01AM 46.8660 -50.9960 77° East 593 682 35,000  Level FlightAware
02:02AM 46.8880 -50.8560 77° East 593 682 35,000  Level FlightAware
02:03AM 46.9070 -50.7360 77° East 593 682 35,000  Level FlightAware
02:04AM 46.9320 -50.5760 78° East 593 682 35,000  Level FlightAware
02:04AM 46.9510 -50.4530 77° East 593 682 35,000  Level FlightAware
02:05AM 46.9760 -50.2970 77° East 593 682 35,000  Level FlightAware
02:06AM 46.9950 -50.1770 77° East 593 682 35,000  Level FlightAware
02:06AM 47.0200 -50.0170 77° East 593 682 35,000  Level FlightAware
02:07AM 47.0000 -50.0000 70° East 570 656 35,000  Level ETMS Enhanced Traffic Management System
02:07AM 47.0333 -49.6833 70° East 590 679 35,000  Level Gander Center
02:07AM 47.0440 -49.8640 77° East 593 682 35,000  Level FlightAware
02:08AM 47.0630 -49.7400 77° East 593 682 35,000  Level FlightAware
02:08AM 47.1000 -49.4500 67° East 590 679 35,000  Level Gander Center
02:08AM 47.0830 -49.6170 77° East 593 682 35,000  Level FlightAware
02:09AM 47.1500 -49.2167 72° East 590 679 35,000  Level Gander Center
02:09AM 47.1080 -49.4530 77° East 593 682 35,000  Level FlightAware
02:09AM 47.1667 -49.1667 64° Northeast 590 679 35,000  Level Gander Center
02:10AM 47.1270 -49.3330 77° East 593 682 35,000  Level FlightAware
02:10AM 47.2000 -49.0000 74° East 590 679 35,000  Level Gander Center
02:11AM 47.2667 -48.8000 64° Northeast 590 679 35,000  Level Gander Center
02:11AM 47.1670 -49.0790 77° East 593 682 35,000  Level FlightAware
02:12AM 47.3167 -48.5500 73° East 600 690 35,000  Level Gander Center
02:12AM 47.3333 -48.4833 70° East 590 679 35,000  Level Gander Center
02:13AM 47.3833 -48.2500 72° East 590 679 35,000  Level Gander Center
02:14AM 47.4167 -48.0833 73° East 590 679 35,000  Level Gander Center
02:15AM 47.4833 -47.8667 65° Northeast 600 690 35,000  Level Gander Center
02:15AM 47.5000 -47.7833 73° East 600 690 35,000  Level Gander Center
02:16AM 47.5333 -47.5500 78° East 590 679 35,000  Level Gander Center
02:17AM 47.5833 -47.3167 72° East 600 690 35,000  Level Gander Center
02:18AM 47.6333 -47.1667 64° Northeast 600 690 35,000  Level Gander Center
02:19AM 47.7000 -46.9333 67° East 590 679 35,000  Level Gander Center
02:20AM 47.7333 -46.7000 78° East 590 679 35,000  Level Gander Center
02:23AM 47.8073 -46.3664 72° East  Level FlightAware Approximate
02:30AM 48.1192 -44.8960 72° East  Level FlightAware Approximate
02:31AM 48.1623 -44.6845 73° East  Level FlightAware Approximate
02:32AM 48.2049 -44.4727 73° East  Level FlightAware Approximate
02:33AM 48.2471 -44.2605 73° East  Level FlightAware Approximate
02:34AM 48.2890 -44.0479 73° East  Level FlightAware Approximate
02:35AM 48.3305 -43.8350 74° East  Level FlightAware Approximate
02:36AM 48.3715 -43.6218 74° East  Level FlightAware Approximate
02:37AM 48.4122 -43.4082 74° East  Level FlightAware Approximate
02:38AM 48.4525 -43.1943 74° East  Level FlightAware Approximate
02:39AM 48.4924 -42.9800 74° East  Level FlightAware Approximate
02:40AM 48.5318 -42.7654 74° East  Level FlightAware Approximate
02:41AM 48.5700 -42.5556 75° East  Level FlightAware Approximate
02:42AM 48.6078 -42.3454 75° East  Level FlightAware Approximate
02:43AM 48.6452 -42.1349 75° East  Level FlightAware Approximate
02:44AM 48.6822 -41.9241 75° East  Level FlightAware Approximate
02:45AM 48.7188 -41.7131 75° East  Level FlightAware Approximate
02:46AM 48.7551 -41.5017 75° East  Level FlightAware Approximate
02:47AM 48.7909 -41.2900 76° East  Level FlightAware Approximate
02:48AM 48.8264 -41.0780 76° East  Level FlightAware Approximate
02:49AM 48.8615 -40.8657 76° East  Level FlightAware Approximate
02:50AM 48.8962 -40.6531 76° East  Level FlightAware Approximate
02:51AM 48.9305 -40.4402 76° East  Level FlightAware Approximate
02:52AM 48.9644 -40.2270 76° East  Level FlightAware Approximate
02:53AM 48.9979 -40.0135 76° East  Level FlightAware Approximate
02:53AM 49.0000 -40.0000 77° East 537 618 35,000  Level ETMS Enhanced Traffic Management System
02:54AM 49.0287 -39.7990 78° East  Level FlightAware Approximate
02:55AM 49.0590 -39.5841 78° East  Level FlightAware Approximate
02:56AM 49.0889 -39.3690 78° East  Level FlightAware Approximate
02:57AM 49.1184 -39.1536 78° East  Level FlightAware Approximate
02:58AM 49.1474 -38.9380 78° East  Level FlightAware Approximate
02:59AM 49.2742 -37.9904 79° East 537 618 35,000  Level FlightAware Transoceanic
03:00AM 49.3025 -37.7658 79° East 537 618 35,000  Level FlightAware Transoceanic
03:01AM 49.3303 -37.5409 79° East 537 618 35,000  Level FlightAware Transoceanic
03:02AM 49.3578 -37.3157 79° East 537 618 35,000  Level FlightAware Transoceanic
03:03AM 49.3848 -37.0904 80° East 537 618 35,000  Level FlightAware Transoceanic
03:04AM 49.4113 -36.8647 80° East 537 618 35,000  Level FlightAware Transoceanic
03:05AM 49.4374 -36.6388 80° East 537 618 35,000  Level FlightAware Transoceanic
03:06AM 49.4631 -36.4127 80° East 537 618 35,000  Level FlightAware Transoceanic
03:07AM 49.4883 -36.1864 80° East 537 618 35,000  Level FlightAware Transoceanic
03:08AM 49.5131 -35.9598 81° East 537 618 35,000  Level FlightAware Transoceanic
03:09AM 49.5375 -35.7330 81° East 537 618 35,000  Level FlightAware Transoceanic
03:10AM 49.5614 -35.5059 81° East 537 618 35,000  Level FlightAware Transoceanic
03:11AM 49.5848 -35.2787 81° East 537 618 35,000  Level FlightAware Transoceanic
03:12AM 49.6078 -35.0512 81° East 537 618 35,000  Level FlightAware Transoceanic
03:13AM 49.6304 -34.8235 81° East 537 618 35,000  Level FlightAware Transoceanic
03:14AM 49.6525 -34.5956 82° East 537 618 35,000  Level FlightAware Transoceanic
03:15AM 49.6742 -34.3675 82° East 537 618 35,000  Level FlightAware Transoceanic
03:16AM 49.6954 -34.1393 82° East 537 618 35,000  Level FlightAware Transoceanic
03:17AM 49.7162 -33.9108 82° East 537 618 35,000  Level FlightAware Transoceanic
03:18AM 49.7365 -33.6821 82° East 537 618 35,000  Level FlightAware Transoceanic
03:19AM 49.7564 -33.4532 82° East 537 618 35,000  Level FlightAware Transoceanic
03:20AM 49.7758 -33.2241 83° East 537 618 35,000  Level FlightAware Transoceanic
03:21AM 49.7948 -32.9949 83° East 537 618 35,000  Level FlightAware Transoceanic
03:22AM 49.8133 -32.7654 83° East 537 618 35,000  Level FlightAware Transoceanic
03:23AM 49.8314 -32.5359 83° East 537 618 35,000  Level FlightAware Transoceanic
03:24AM 49.8490 -32.3061 83° East 537 618 35,000  Level FlightAware Transoceanic
03:25AM 49.8661 -32.0761 83° East 537 618 35,000  Level FlightAware Transoceanic
03:26AM 49.8828 -31.8461 84° East 537 618 35,000  Level FlightAware Transoceanic
03:27AM 49.8991 -31.6158 84° East 537 618 35,000  Level FlightAware Transoceanic
03:28AM 49.9149 -31.3854 84° East 537 618 35,000  Level FlightAware Transoceanic
03:29AM 49.9302 -31.1549 84° East 537 618 35,000  Level FlightAware Transoceanic
03:30AM 49.9451 -30.9242 84° East 537 618 35,000  Level FlightAware Transoceanic
03:31AM 49.9595 -30.6933 85° East 537 618 35,000  Level FlightAware Transoceanic
03:32AM 49.9735 -30.4623 85° East 537 618 35,000  Level FlightAware Transoceanic
03:33AM 49.9870 -30.2312 85° East 537 618 35,000  Level FlightAware Transoceanic
03:34AM 49.9996 -30.0080 85° East  Level FlightAware Approximate
03:35AM 50.0116 -29.7847 85° East  Level FlightAware Approximate
03:36AM 50.0283 -29.7966 78° East  Level FlightAware Approximate
03:37AM 50.0583 -29.5772 78° East  Level FlightAware Approximate
03:38AM 50.0879 -29.3575 78° East  Level FlightAware Approximate
03:39AM 50.1171 -29.1376 78° East  Level FlightAware Approximate
03:39AM 50.0000 -30.0000 77° East 526 605 35,000  Level ETMS Enhanced Traffic Management System
03:40AM 50.1459 -28.9174 78° East  Level FlightAware Approximate
03:41AM 50.1743 -28.6970 79° East  Level FlightAware Approximate
03:42AM 50.2023 -28.4762 79° East  Level FlightAware Approximate
03:43AM 50.2298 -28.2553 79° East  Level FlightAware Approximate
03:44AM 50.2569 -28.0340 79° East  Level FlightAware Approximate
03:45AM 50.3020 -27.7671 79° East 526 605 35,000  Level FlightAware Transoceanic
03:46AM 50.3298 -27.5423 79° East 526 605 35,000  Level FlightAware Transoceanic
03:47AM 50.3572 -27.3173 79° East 526 605 35,000  Level FlightAware Transoceanic
03:48AM 50.3842 -27.0919 79° East 526 605 35,000  Level FlightAware Transoceanic
03:49AM 50.4107 -26.8664 80° East 526 605 35,000  Level FlightAware Transoceanic
03:50AM 50.4368 -26.6406 80° East 526 605 35,000  Level FlightAware Transoceanic
03:51AM 50.4625 -26.4145 80° East 526 605 35,000  Level FlightAware Transoceanic
03:52AM 50.4877 -26.1882 80° East 526 605 35,000  Level FlightAware Transoceanic
03:53AM 50.5125 -25.9616 80° East 526 605 35,000  Level FlightAware Transoceanic
03:54AM 50.5368 -25.7348 81° East 526 605 35,000  Level FlightAware Transoceanic
03:55AM 50.5607 -25.5078 81° East 526 605 35,000  Level FlightAware Transoceanic
03:56AM 50.5841 -25.2805 81° East 526 605 35,000  Level FlightAware Transoceanic
03:57AM 50.6072 -25.0531 81° East 526 605 35,000  Level FlightAware Transoceanic
03:58AM 50.6297 -24.8254 81° East 526 605 35,000  Level FlightAware Transoceanic
03:59AM 50.6519 -24.5975 81° East 526 605 35,000  Level FlightAware Transoceanic
04:00AM 50.6735 -24.3693 82° East 526 605 35,000  Level FlightAware Transoceanic
04:01AM 50.6948 -24.1410 82° East 526 605 35,000  Level FlightAware Transoceanic
04:02AM 50.7156 -23.9125 82° East 526 605 35,000  Level FlightAware Transoceanic
04:03AM 50.7359 -23.6837 82° East 526 605 35,000  Level FlightAware Transoceanic
04:04AM 50.7558 -23.4548 82° East 526 605 35,000  Level FlightAware Transoceanic
04:05AM 50.7752 -23.2257 82° East 526 605 35,000  Level FlightAware Transoceanic
04:06AM 50.7942 -22.9963 83° East 526 605 35,000  Level FlightAware Transoceanic
04:07AM 50.8128 -22.7668 83° East 526 605 35,000  Level FlightAware Transoceanic
04:08AM 50.8309 -22.5372 83° East 526 605 35,000  Level FlightAware Transoceanic
04:09AM 50.8485 -22.3073 83° East 526 605 35,000  Level FlightAware Transoceanic
04:10AM 50.8657 -22.0773 83° East 526 605 35,000  Level FlightAware Transoceanic
04:11AM 50.8824 -21.8471 84° East 526 605 35,000  Level FlightAware Transoceanic
04:12AM 50.8987 -21.6167 84° East 526 605 35,000  Level FlightAware Transoceanic
04:13AM 50.9146 -21.3862 84° East 526 605 35,000  Level FlightAware Transoceanic
04:14AM 50.9299 -21.1555 84° East 526 605 35,000  Level FlightAware Transoceanic
04:15AM 50.9449 -20.9247 84° East 526 605 35,000  Level FlightAware Transoceanic
04:16AM 50.9593 -20.6937 84° East 526 605 35,000  Level FlightAware Transoceanic
04:17AM 50.9733 -20.4626 85° East 526 605 35,000  Level FlightAware Transoceanic
04:18AM 50.9869 -20.2314 85° East 526 605 35,000  Level FlightAware Transoceanic
04:19AM 50.9998 -20.0034 85° East  Level FlightAware Approximate
04:20AM 51.0122 -19.7753 85° East  Level FlightAware Approximate
04:21AM 51.0251 -19.7815 80° East  Level FlightAware Approximate
04:22AM 51.0505 -19.5560 80° East  Level FlightAware Approximate
04:23AM 51.0755 -19.3303 80° East  Level FlightAware Approximate
04:24AM 51.1000 -19.1043 80° East  Level FlightAware Approximate
04:25AM 51.1241 -18.8781 80° East  Level FlightAware Approximate
04:26AM 51.1478 -18.6516 80° East  Level FlightAware Approximate
04:27AM 51.1711 -18.4249 81° East  Level FlightAware Approximate
04:28AM 51.1939 -18.1980 81° East  Level FlightAware Approximate
04:29AM 51.2163 -17.9709 81° East  Level FlightAware Approximate
04:30AM 51.2382 -17.7435 81° East  Level FlightAware Approximate
04:31AM 51.2597 -17.5159 81° East  Level FlightAware Approximate
04:32AM 51.2807 -17.2882 82° East  Level FlightAware Approximate
04:33AM 51.3013 -17.0602 82° East  Level FlightAware Approximate
04:34AM 51.3215 -16.8320 82° East  Level FlightAware Approximate
04:35AM 51.3412 -16.6036 82° East  Level FlightAware Approximate
04:36AM 51.3604 -16.3750 82° East  Level FlightAware Approximate
04:37AM 51.3793 -16.1462 82° East  Level FlightAware Approximate
04:38AM 51.3977 -15.9173 83° East  Level FlightAware Approximate
04:39AM 51.4156 -15.6881 83° East  Level FlightAware Approximate
04:40AM 51.4331 -15.4588 83° East  Level FlightAware Approximate
04:41AM 51.4501 -15.2293 83° East  Level FlightAware Approximate
04:42AM 51.4667 -14.9997 85° East  Level FlightAware Approximate
04:43AM 51.4795 -14.7697 85° East  Level FlightAware Approximate
04:44AM 51.4954 -14.5402 83° East  Level FlightAware Approximate
04:45AM 51.5125 -14.3108 83° East  Level FlightAware Approximate
04:46AM 51.5290 -14.0812 83° East  Level FlightAware Approximate
04:47AM 51.5451 -13.8515 83° East  Level FlightAware Approximate
04:48AM 51.5608 -13.6216 84° East  Level FlightAware Approximate
04:49AM 51.5749 -13.3913 85° East  Level FlightAware Approximate
04:50AM 51.5879 -13.1608 85° East  Level FlightAware Approximate
04:51AM 51.6004 -12.9302 85° East  Level FlightAware Approximate
04:52AM 51.6125 -12.6995 85° East  Level FlightAware Approximate
04:53AM 51.6241 -12.4686 85° East  Level FlightAware Approximate
04:54AM 51.6353 -12.2377 85° East  Level FlightAware Approximate
04:55AM 51.6460 -12.0066 86° East  Level FlightAware Approximate
04:56AM 51.6563 -11.7754 86° East  Level FlightAware Approximate
04:56AM 51.3870 -11.2660 86° East 589 678 35,000  Level FlightAware
04:57AM 51.6661 -11.5441 86° East  Level FlightAware Approximate
04:57AM 51.4040 -11.1140 80° East 591 680 35,000  Level FlightAware
04:58AM 51.4380 -10.7780 81° East 595 685 35,000  Level FlightAware
04:58AM 51.4560 -10.6010 81° East 597 687 35,000  Level FlightAware
04:59AM 51.4750 -10.4140 81° East 599 689 35,000  Level FlightAware
05:00AM 51.4900 -10.2620 81° East 600 690 35,000  Level FlightAware
05:01AM 51.5130 -10.0290 81° East 603 694 35,000  Level FlightAware
05:01AM 51.5290 -9.8660 81° East 603 694 35,000  Level FlightAware
05:02AM 51.5450 -9.6950 81° East 602 693 35,000  Level FlightAware
05:03AM 51.5640 -9.4890 81° East 603 694 35,000  Level FlightAware
05:03AM 51.5790 -9.3210 82° East 605 696 35,000  Level FlightAware
05:04AM 51.5970 -9.1170 82° East 604 695 35,000  Level FlightAware
05:05AM 51.6110 -8.9470 82° East 604 695 35,000  Level FlightAware
05:05AM 51.6073 -8.9525 82° East 490 564 35,000  Level FlightAware UK
05:05AM 51.6185 -8.8192 82° East 490 564 35,000  Level FlightAware UK
05:05AM 51.6280 -8.7460 82° East 604 695 35,000  Level FlightAware
05:06AM 51.6296 -8.6861 82° East 490 564 35,000  Level FlightAware UK
05:06AM 51.6430 -8.5690 82° East 602 693 35,000  Level FlightAware
05:07AM 51.6511 -8.4195 82° East 488 562 35,000  Level FlightAware UK
05:07AM 51.6570 -8.3860 82° East 599 689 35,000  Level FlightAware
05:07AM 51.6614 -8.2865 82° East 486 559 35,000  Level FlightAware UK
05:08AM 51.6740 -8.1770 82° East 598 688 35,000  Level FlightAware
05:08AM 51.6840 -8.0370 82° East 596 686 35,000  Level FlightAware
05:08AM 51.6829 -8.0208 82° East 484 557 35,000  Level FlightAware UK
05:09AM 51.6931 -7.8887 82° East 484 557 35,000  Level FlightAware UK
05:09AM 51.6990 -7.8420 82° East 594 684 35,000  Level FlightAware
05:09AM 51.7027 -7.7568 82° East 482 555 35,000  Level FlightAware UK
05:10AM 51.7160 -7.6170 82° East 593 682 35,000  Level FlightAware
05:10AM 51.7217 -7.4939 82° East 482 555 35,000  Level FlightAware UK
05:10AM 51.7290 -7.4320 82° East 593 682 35,000  Level FlightAware
05:11AM 51.7306 -7.3623 82° East 484 557 35,000  Level FlightAware UK
05:11AM 51.7410 -7.2510 82° East 593 682 35,000  Level FlightAware
05:12AM 51.7473 -7.0991 82° East 482 555 35,000  Level FlightAware UK
05:12AM 51.7530 -7.0780 82° East 592 681 35,000  Level FlightAware
05:12AM 51.7564 -6.9667 82° East 484 557 35,000  Level FlightAware UK
05:12AM 51.7660 -6.8850 82° East 593 682 35,000  Level FlightAware
05:13AM 51.7653 -6.8351 82° East 484 557 35,000  Level FlightAware UK
05:13AM 51.7780 -6.6970 82° East 592 681 35,000  Level FlightAware
05:14AM 51.7801 -6.5719 82° East 482 555 35,000  Level FlightAware UK
05:14AM 51.7850 -6.5220 82° East 586 674 35,000  Level FlightAware
05:14AM 51.7780 -6.4415 82° East 482 555 35,000  Level FlightAware UK
05:15AM 51.7810 -6.3400 82° East 581 669 35,000  Level FlightAware
05:15AM 51.7721 -6.2854 82° East 482 555 35,000  Level FlightAware UK
05:15AM 51.7740 -6.1480 82° East 580 667 35,000  Level FlightAware
05:16AM 51.7624 -6.0261 82° East 480 552 35,000  Level FlightAware UK
05:16AM 51.7670 -5.9790 82° East 580 667 35,000  Level FlightAware
05:16AM 51.7576 -5.8960 82° East 480 552 35,000  Level FlightAware UK
05:17AM 51.7610 -5.8160 82° East 580 667 35,000  Level FlightAware
05:17AM 51.7530 -5.6170 82° East 581 669 35,000  Level FlightAware
05:17AM 51.7470 -5.6375 82° East 482 555 35,000  Level FlightAware UK
05:18AM 51.7416 -5.5080 82° East 482 555 35,000  Level FlightAware UK
05:18AM 51.7460 -5.4430 82° East 580 667 35,000  Level FlightAware
05:18AM 51.7362 -5.3786 82° East 482 555 35,000  Level FlightAware UK
05:19AM 51.7370 -5.2450 82° East 580 667 35,000  Level FlightAware
05:19AM 51.7269 -5.1716 82° East 482 555 35,000  Level FlightAware UK
05:19AM 51.7290 -5.0690 82° East 580 667 35,000  Level FlightAware
05:20AM 51.7210 -4.8850 94° East 581 669 35,000  Level FlightAware
05:21AM 51.7094 -4.7827 94° East 482 555 35,000  Level FlightAware UK
05:21AM 51.7130 -4.7040 94° East 580 667 35,000  Level FlightAware
05:21AM 51.7032 -4.6535 94° East 482 555 35,000  Level FlightAware UK
05:22AM 51.7040 -4.5330 94° East 580 667 35,000  Level FlightAware
05:22AM 51.6950 -4.3470 94° East 579 666 35,000  Level FlightAware
05:23AM 51.6850 -4.1670 94° East 579 666 35,000  Level FlightAware
05:23AM 51.6791 -4.1883 94° East 482 555 35,000  Level FlightAware UK
05:23AM 51.6719 -4.0596 94° East 482 555 35,000  Level FlightAware UK
05:24AM 51.6750 -3.9880 94° East 579 666 35,000  Level FlightAware
05:24AM 51.6631 -3.9045 94° East 482 555 35,000  Level FlightAware UK
05:24AM 51.6650 -3.8050 94° East 578 665 35,000  Level FlightAware
05:25AM 51.6512 -3.7000 94° East 484 557 35,000  Level FlightAware UK
05:25AM 51.6550 -3.6300 94° East 578 665 35,000  Level FlightAware
05:26AM 51.6440 -3.4580 94° East 577 664 35,000  Level FlightAware
05:26AM 51.6372 -3.4683 94° East 486 559 35,000  Level FlightAware UK
05:26AM 51.6320 -3.2610 96° East 575 662 35,000  Level FlightAware
05:27AM 51.6300 -3.2319 96° East 576 663 35,000  Level FlightAware ADS-B
05:27AM 51.6180 -3.1618 96° East 484 557 35,000  Level FlightAware UK
05:27AM 51.6217 -3.1034 96° East 575 662 35,000  Level FlightAware ADS-B
05:27AM 51.6094 -3.0338 96° East 484 557 35,000  Level FlightAware UK
05:28AM 51.6125 -2.9657 96° East 573 659 35,000  Level FlightAware ADS-B
05:28AM 51.6007 -2.9061 96° East 482 555 35,000  Level FlightAware UK
05:28AM 51.6031 -2.8246 96° East 572 658 35,000  Level FlightAware ADS-B
05:28AM 51.5922 -2.7796 96° East 482 555 35,000  Level FlightAware UK
05:29AM 51.5943 -2.6964 96° East 570 656 35,000  Level FlightAware ADS-B
05:29AM 51.5837 -2.6533 96° East 480 552 35,000  Level FlightAware UK
05:29AM 51.5853 -2.5692 96° East 571 657 35,000  Level FlightAware ADS-B
05:30AM 51.5729 -2.5014 96° East 480 552 35,000  Level FlightAware UK
05:30AM 51.5763 -2.4411 96° East 572 658 35,000  Level FlightAware ADS-B
05:30AM 51.5670 -2.3103 96° East 573 659 35,000  Level FlightAware ADS-B
05:31AM 51.5577 -2.1818 97° East 573 659 35,000  Level FlightAware ADS-B
05:31AM 51.5483 -2.0540 97° East 573 659 35,000  Level FlightAware ADS-B
05:32AM 51.5385 -1.9205 97° East 572 658 35,000  Level FlightAware ADS-B
05:32AM 51.5270 -1.8677 97° East 482 555 35,000  Level FlightAware UK
05:32AM 51.5282 -1.7825 97° East 571 657 35,000  Level FlightAware ADS-B
05:33AM 51.5174 -1.7409 97° East 480 552 35,000  Level FlightAware UK
05:33AM 51.5183 -1.6537 97° East 570 656 35,000  Level FlightAware ADS-B
05:33AM 51.5085 -1.5273 97° East 569 655 35,000  Level FlightAware ADS-B
05:34AM 51.4986 -1.3992 97° East 570 656 35,000  Level FlightAware ADS-B
05:34AM 51.4884 -1.2735 97° East 570 656 35,000  Level FlightAware ADS-B
05:35AM 51.4770 -1.1323 97° East 569 655 35,000  Level FlightAware ADS-B
05:35AM 51.4664 -1.0043 98° East 568 654 35,000  Level FlightAware ADS-B
05:36AM 51.4556 -0.8762 98° East 566 651 35,000  Level FlightAware ADS-B
05:36AM 51.4439 -0.7391 98° East 565 650 35,000  Level FlightAware ADS-B
05:37AM 51.4327 -0.6113 98° East 567 652 35,000  Level FlightAware ADS-B
05:38AM 51.4218 -0.4846 98° East 566 651 35,000  Level FlightAware ADS-B
05:38AM 51.4078 -0.3593 100° East 565 650 35,000  Level FlightAware ADS-B
05:39AM 51.3917 -0.2345 102° East 565 650 35,000  Level FlightAware ADS-B
05:39AM 51.3758 -0.1048 101° East 563 648 35,000  Level FlightAware ADS-B
05:39AM 51.3703 -0.0565 100° East 563 648 35,000  Level FlightAware ADS-B
05:40AM 51.3618 0.0220 100° East 563 648 35,000  Level FlightAware ADS-B
05:40AM 51.3487 0.1492 99° East 563 648 35,000  Level FlightAware ADS-B
05:41AM 51.3361 0.2747 99° East 563 648 35,000  Level FlightAware ADS-B
05:41AM 51.3216 0.4219 99° East 563 648 35,000  Level FlightAware ADS-B
05:42AM 51.3131 0.5076 99° East 563 648 35,000  Level FlightAware ADS-B
05:42AM 51.3089 0.5486 99° East 562 647 35,000  Level FlightAware ADS-B
05:42AM 51.2963 0.6757 99° East 562 647 35,000  Level FlightAware ADS-B
05:43AM 51.2829 0.7435 99° East 480 552 35,000  Level FlightAware UK
05:43AM 51.2834 0.8050 99° East 562 647 35,000  Level FlightAware ADS-B
05:43AM 51.2709 0.9303 99° East 562 647 35,000  Level FlightAware ADS-B
05:44AM 51.2577 1.0653 99° East 562 647 35,000  Level FlightAware ADS-B
05:44AM 51.2457 1.1875 99° East 480 552 35,000  Level FlightAware UK
05:45AM 51.2460 1.2620 99° East 560 644 35,000  Level FlightAware
05:45AM 51.2379 1.3108 99° East 480 552 35,000  Level FlightAware UK
05:45AM 51.2228 1.4068 104° East 480 552 35,000  Level FlightAware UK
05:46AM 51.2110 1.4920 104° East 556 640 35,000  Level FlightAware
05:46AM 51.1852 1.5424 104° East 480 552 35,000  Level FlightAware UK
05:46AM 51.1670 1.6480 104° East 554 638 35,000  Level FlightAware
05:47AM 51.1234 1.7664 104° East 480 552 35,000  Level FlightAware UK
05:47AM 51.1230 1.8090 104° East 554 638 35,000  Level FlightAware
05:47AM 51.0940 1.8793 104° East 480 552 35,000  Level FlightAware UK
05:48AM 51.0840 1.9600 104° East 555 639 35,000  Level FlightAware
05:48AM 51.0489 2.0870 114° Southeast 555 639 35,000  Level FlightAware ADS-B
05:49AM 51.0120 2.1696 114° Southeast 480 552 35,000  Level FlightAware UK
05:49AM 50.9970 2.2590 114° Southeast 555 639 35,000  Level FlightAware
05:49AM 50.9718 2.3024 114° Southeast 482 555 35,000  Level FlightAware UK
05:50AM 50.9450 2.4310 114° Southeast 554 638 35,000  Level FlightAware
05:50AM 50.9214 2.5082 116° Southeast 554 638 35,000  Level FlightAware ADS-B
05:50AM 50.8994 2.5445 116° Southeast 480 552 35,000  Level FlightAware UK
05:51AM 50.8696 2.6826 116° Southeast 554 638 35,000  Level FlightAware ADS-B
05:51AM 50.8360 2.7951 115° Southeast 554 638 35,000  Level FlightAware ADS-B
05:52AM 50.7925 2.9396 115° Southeast 553 636 35,000  Level FlightAware ADS-B
05:53AM 50.7574 3.0566 115° Southeast 552 635 35,000  Level FlightAware ADS-B
05:53AM 50.7242 3.1656 116° Southeast 550 633 35,000  Level FlightAware ADS-B
05:54AM 50.6829 3.2665 116° Southeast 484 557 35,000  Level FlightAware UK
05:54AM 50.6766 3.3221 116° Southeast 550 633 35,000  Level FlightAware ADS-B
05:54AM 50.6433 3.3960 116° Southeast 484 557 35,000  Level FlightAware UK
05:54AM 50.6350 3.4575 116° Southeast 548 631 35,000  Level FlightAware ADS-B
05:55AM 50.5921 3.5957 116° Southeast 545 627 35,000  Level FlightAware ADS-B
05:56AM 50.5573 3.7075 116° Southeast 544 626 35,000  Level FlightAware ADS-B
05:56AM 50.5200 3.8260 116° Southeast 542 624 35,000  Level FlightAware
05:56AM 50.5074 3.8670 116° Southeast 543 625 35,000  Level FlightAware ADS-B
05:57AM 50.4720 3.9790 116° Southeast 542 624 35,000  Level FlightAware
05:58AM 50.4280 4.1180 116° Southeast 541 623 35,000  Level FlightAware
05:58AM 50.3766 4.2440 116° Southeast 1 1 35,000  Level FlightAware UK
05:58AM 50.3760 4.2830 116° Southeast 541 623 35,000  Level FlightAware
05:59AM 50.3363 4.3701 116° Southeast 1 1 35,000  Level FlightAware UK
05:59AM 50.3320 4.4210 116° Southeast 542 624 35,000  Level FlightAware
05:59AM 50.3082 4.4944 117° Southeast 542 624 35,000  Level FlightAware ADS-B
06:00AM 50.2812 4.5354 117° Southeast 1 1 35,000  Level FlightAware UK
06:00AM 50.2642 4.6315 117° Southeast 542 624 35,000  Level FlightAware ADS-B
06:01AM 50.2273 4.7457 117° Southeast 542 624 35,000  Level FlightAware ADS-B
06:01AM 50.1913 4.8567 117° Southeast 542 624 35,000  Level FlightAware ADS-B
06:02AM 50.1531 4.9738 117° Southeast 541 623 35,000  Level FlightAware ADS-B
06:02AM 50.1170 5.0844 117° Southeast 540 621 35,000  Level FlightAware ADS-B
06:03AM 50.0724 5.2202 117° Southeast 540 621 35,000  Level FlightAware ADS-B
06:04AM 49.9970 5.4500 117° Southeast 536 617 35,000  Level FlightAware
06:05AM 49.9550 5.5750 118° Southeast 534 615 35,000  Level FlightAware
06:05AM 49.9060 5.7200 118° Southeast 533 613 35,000  Level FlightAware
06:06AM 49.8550 5.8710 118° Southeast 530 610 35,000  Level FlightAware
06:07AM 49.8130 5.9960 117° Southeast 530 610 35,000  Level FlightAware
06:07AM 49.7600 6.1510 118° Southeast 529 609 35,000  Level FlightAware
06:08AM 49.7160 6.2800 118° Southeast 528 608 35,000  Level FlightAware
06:09AM 49.6700 6.4140 118° Southeast 529 609 35,000  Level FlightAware
06:09AM 49.6230 6.5480 118° Southeast 530 610 35,000  Level FlightAware
06:10AM 49.5700 6.7000 118° Southeast 526 605 35,000  Level FlightAware
06:11AM 49.5040 6.8860 119° Southeast 527 606 35,000  Level FlightAware
06:12AM 49.4500 7.0380 119° Southeast 527 606 35,000  Level FlightAware
06:13AM 49.4050 7.1660 118° Southeast 526 605 35,000  Level FlightAware
06:13AM 49.3660 7.2760 119° Southeast 529 609 35,000  Level FlightAware
06:14AM 49.3050 7.4440 119° Southeast 528 608 35,000  Level FlightAware
06:15AM 49.2290 7.6550 119° Southeast 526 605 35,000  Level FlightAware
06:16AM 49.1740 7.8050 119° Southeast 527 606 35,000  Level FlightAware
06:17AM 49.1230 7.9320 121° Southeast 523 602 35,000  Level FlightAware
06:17AM 49.0530 8.0620 129° Southeast 528 608 35,000  Level FlightAware
06:18AM 48.9910 8.1790 129° Southeast 522 601 35,000  Level FlightAware
06:19AM 48.9260 8.3030 129° Southeast 527 606 35,000  Level FlightAware
06:19AM 48.8610 8.4190 130° Southeast 527 606 35,000  Level FlightAware
06:20AM 48.8300 8.4740 131° Southeast 525 604 35,000  Level FlightAware
06:21AM 48.7080 8.6920 130° Southeast 521 600 35,000  Level FlightAware
06:22AM 48.6380 8.8170 130° Southeast 520 598 35,000  Level FlightAware
06:22AM 48.5780 8.9250 130° Southeast 519 597 35,000  Level FlightAware
06:23AM 48.5070 9.0500 131° Southeast 519 597 35,000  Level FlightAware
06:24AM 48.4410 9.1650 131° Southeast 523 602 35,000  Level FlightAware
06:24AM 48.3780 9.2760 130° Southeast 519 597 35,000  Level FlightAware
06:25AM 48.3140 9.3850 131° Southeast 521 600 35,000  Level FlightAware
06:26AM 48.2450 9.4960 133° Southeast 524 603 35,000  Level FlightAware
06:27AM 48.1630 9.5950 141° Southeast 534 615 35,000  Level FlightAware
06:27AM 48.0700 9.6920 145° Southeast 530 610 35,000  Level FlightAware
06:28AM 48.0140 9.7520 144° Southeast 538 619 35,000  Level FlightAware
06:29AM 47.9050 9.8680 144° Southeast 539 620 35,000  Level FlightAware
06:29AM 47.8120 9.9670 144° Southeast 538 619 35,000  Level FlightAware
06:30AM 47.7410 10.0410 145° Southeast 539 620 35,000  Level FlightAware
06:31AM 47.6490 10.1340 146° Southeast 539 620 35,000  Level FlightAware
06:31AM 47.5690 10.2150 146° Southeast 539 620 35,000  Level FlightAware
06:32AM 47.4760 10.3100 145° Southeast 542 624 35,000  Level FlightAware
06:33AM 47.3800 10.4080 145° Southeast 543 625 35,000  Level FlightAware
06:34AM 47.3030 10.4850 146° Southeast 543 625 35,000  Level FlightAware
06:34AM 47.2120 10.5760 146° Southeast 544 626 35,000  Level FlightAware
06:35AM 47.1210 10.6670 146° Southeast 545 627 35,000  Level FlightAware
06:36AM 46.9970 10.7790 148° Southeast 547 629 35,000  Level FlightAware
06:36AM 46.9280 10.8380 150° Southeast 547 629 35,000  Level FlightAware
06:37AM 46.8220 10.9290 150° Southeast 542 624 35,000  Level FlightAware
06:38AM 46.7280 11.0090 150° Southeast 547 629 35,000  Level FlightAware
06:39AM 46.6380 11.0840 150° Southeast 542 624 35,000  Level FlightAware
06:39AM 46.5460 11.1610 150° Southeast 543 625 35,000  Level FlightAware
06:40AM 46.4610 11.2320 150° Southeast 544 626 35,000 60 Level FlightAware
06:41AM 46.3610 11.3150 150° Southeast 543 625 35,100 240 Climbing FlightAware
06:41AM 46.2720 11.3890 150° Southeast 542 624 35,400 420 Climbing FlightAware
06:42AM 46.1870 11.4590 150° Southeast 539 620 35,700 480 Climbing FlightAware
06:43AM 46.0900 11.5390 150° Southeast 538 619 36,100 480 Climbing FlightAware
06:44AM 46.0030 11.6110 150° Southeast 525 604 36,400 480 Climbing FlightAware
06:44AM 45.9050 11.6910 150° Southeast 519 597 36,800 360 Climbing FlightAware
06:45AM 45.8340 11.7500 150° Southeast 522 601 37,000 120 Climbing FlightAware
06:46AM 45.7310 11.8330 151° Southeast 539 620 37,000  Level FlightAware
06:46AM 45.6550 11.8950 150° Southeast 540 621 37,000  Level FlightAware
06:47AM 45.5580 11.9910 145° Southeast 528 608 37,000  Level FlightAware
06:48AM 45.5190 12.0830 121° Southeast 504 580 37,000  Level FlightAware
06:48AM 45.4950 12.2170 104° East 496 571 37,000  Level FlightAware
06:49AM 45.4710 12.3660 103° East 498 573 37,000  Level FlightAware
06:50AM 45.4400 12.5540 103° East 502 578 37,000  Level FlightAware
06:51AM 45.4180 12.6820 104° East 501 577 37,000  Level FlightAware
06:51AM 45.3940 12.8250 103° East 498 573 37,000  Level FlightAware
06:52AM 45.3720 12.9480 104° East 499 574 37,000  Level FlightAware
06:53AM 45.3450 13.0990 104° East 498 573 37,000  Level FlightAware
06:54AM 45.3150 13.2190 110° East 508 585 37,000  Level FlightAware
06:54AM 45.2530 13.3460 125° Southeast 516 594 37,000  Level FlightAware
06:55AM 45.1890 13.4820 124° Southeast 513 590 37,000  Level FlightAware
06:56AM 45.1260 13.6070 126° Southeast 504 580 37,000  Level FlightAware
06:57AM 45.0690 13.7180 126° Southeast 503 579 37,000  Level FlightAware
06:57AM 45.0080 13.8370 126° Southeast 504 580 37,000  Level FlightAware
06:58AM 44.9590 13.9320 126° Southeast 510 587 37,000  Level FlightAware
06:59AM 44.8930 14.0600 126° Southeast 506 582 37,000  Level FlightAware
06:59AM 44.8280 14.1870 126° Southeast 507 583 37,000  Level FlightAware
07:00AM 44.7570 14.3250 126° Southeast 508 585 37,000  Level FlightAware
07:02AM 44.6610 14.5090 126° Southeast 516 594 37,000  Level FlightAware
07:02AM 44.5870 14.6520 126° Southeast 516 594 37,000  Level FlightAware
07:03AM 44.5270 14.7650 127° Southeast 515 593 37,000  Level FlightAware
07:04AM 44.4300 14.9500 126° Southeast 513 590 37,000  Level FlightAware
07:05AM 44.3700 15.0640 126° Southeast 513 590 37,000  Level FlightAware
07:06AM 44.3080 15.1780 127° Southeast 514 592 37,000  Level FlightAware
07:06AM 44.2380 15.3100 126° Southeast 513 590 37,000  Level FlightAware
07:07AM 44.1870 15.4050 127° Southeast 513 590 37,000  Level FlightAware
07:08AM 44.1230 15.5230 127° Southeast 510 587 37,000  Level FlightAware
07:09AM 44.0600 15.6400 127° Southeast 509 586 37,000  Level FlightAware
07:09AM 44.0020 15.7460 127° Southeast 508 585 37,000 120 Level FlightAware
07:10AM 43.9220 15.8930 127° Southeast 502 578 37,200 300 Climbing FlightAware
07:11AM 43.8660 15.9960 127° Southeast 505 581 37,500 420 Climbing FlightAware
07:12AM 43.8150 16.0880 128° Southeast 509 586 37,800 300 Climbing FlightAware
07:12AM 43.7530 16.2280 121° Southeast 505 581 38,000 120 Climbing FlightAware
07:13AM 43.7020 16.3520 120° Southeast 503 579 38,000  Level FlightAware
07:14AM 43.6640 16.4460 119° Southeast 501 577 38,000  Level FlightAware
07:14AM 43.6060 16.5860 120° Southeast 497 572 38,000  Level FlightAware
07:15AM 43.5640 16.6910 119° Southeast 496 571 38,000  Level FlightAware
07:16AM 43.5140 16.8140 119° Southeast 495 570 38,000  Level FlightAware
07:16AM 43.4670 16.9200 121° Southeast 496 571 38,000  Level FlightAware
07:17AM 43.4050 17.0190 131° Southeast 493 567 38,000  Level FlightAware
07:18AM 43.3330 17.1210 134° Southeast 495 570 38,000  Level FlightAware
07:19AM 43.2690 17.2120 134° Southeast 495 570 38,000 -240 Level FlightAware
07:19AM 43.2070 17.3000 134° Southeast 498 573 37,700 -480 Descending FlightAware
07:21AM 43.0840 17.4740 134° Southeast 489 563 37,100 -360 Descending FlightAware
07:21AM 43.0070 17.5820 134° Southeast 484 557 37,000 -120 Descending FlightAware
07:22AM 42.9350 17.6830 134° Southeast 485 558 37,000  Level FlightAware
07:23AM 42.8630 17.7830 134° Southeast 487 560 37,000  Level FlightAware
07:23AM 42.8030 17.8670 134° Southeast 487 560 37,000  Level FlightAware
07:24AM 42.7380 17.9580 134° Southeast 490 564 37,000  Level FlightAware
07:25AM 42.6780 18.0430 134° Southeast 491 565 37,000  Level FlightAware
07:26AM 42.6000 18.1510 134° Southeast 490 564 37,000  Level FlightAware
07:26AM 42.5320 18.2460 134° Southeast 488 562 37,000  Level FlightAware
07:27AM 42.4750 18.3250 134° Southeast 487 560 37,000  Level FlightAware
07:28AM 42.4010 18.4270 134° Southeast 487 560 37,000  Level FlightAware
07:28AM 42.3470 18.5000 135° Southeast 488 562 37,000  Level FlightAware
07:29AM 42.2660 18.6120 134° Southeast 488 562 37,000  Level FlightAware
07:30AM 42.2020 18.7000 134° Southeast 488 562 37,000  Level FlightAware
07:30AM 42.1360 18.7900 135° Southeast 488 562 37,000  Level FlightAware
07:31AM 42.0650 18.8860 135° Southeast 487 560 37,000  Level FlightAware
07:32AM 42.0110 18.9610 134° Southeast 488 562 37,000  Level FlightAware
07:33AM 41.9330 19.0670 135° Southeast 489 563 37,000  Level FlightAware
07:33AM 41.8800 19.1390 135° Southeast 490 564 37,000  Level FlightAware
07:34AM 41.8020 19.2450 135° Southeast 490 564 37,000  Level FlightAware
07:35AM 41.7340 19.3370 135° Southeast 492 566 37,000  Level FlightAware
07:35AM 41.6670 19.4250 136° Southeast 492 566 37,000  Level FlightAware
07:36AM 41.5990 19.5160 135° Southeast 492 566 37,000  Level FlightAware
07:37AM 41.5280 19.6100 135° Southeast 492 566 37,000  Level FlightAware
07:37AM 41.4640 19.6950 135° Southeast 492 566 37,000  Level FlightAware
07:38AM 41.3990 19.7800 136° Southeast 493 567 37,000  Level FlightAware
07:39AM 41.3240 19.8790 135° Southeast 493 567 37,000  Level FlightAware
07:40AM 41.2580 19.9660 135° Southeast 494 568 37,000  Level FlightAware
07:40AM 41.1870 20.0590 135° Southeast 493 567 37,000  Level FlightAware
07:41AM 41.1220 20.1430 136° Southeast 492 566 37,000  Level FlightAware
07:42AM 41.0570 20.2290 135° Southeast 491 565 37,000  Level FlightAware
07:42AM 40.9820 20.3260 136° Southeast 490 564 37,000  Level FlightAware
07:43AM 40.9280 20.3950 136° Southeast 490 564 37,000  Level FlightAware
07:44AM 40.8420 20.5050 136° Southeast 489 563 37,000  Level FlightAware
07:45AM 40.7610 20.6100 136° Southeast 489 563 37,000  Level FlightAware
07:46AM 40.6640 20.7330 136° Southeast 490 564 37,000  Level FlightAware
07:46AM 40.6080 20.8050 136° Southeast 490 564 37,000  Level FlightAware
07:47AM 40.5300 20.9040 136° Southeast 491 565 37,000  Level FlightAware
07:48AM 40.4720 20.9790 135° Southeast 492 566 37,000  Level FlightAware
07:48AM 40.3880 21.0750 139° Southeast 487 560 37,000  Level FlightAware
07:49AM 40.3190 21.1530 139° Southeast 495 570 37,000  Level FlightAware
07:50AM 40.2050 21.2820 139° Southeast 498 573 37,000  Level FlightAware
07:51AM 40.1100 21.3910 139° Southeast 493 567 37,000  Level FlightAware
07:52AM 40.0310 21.4820 139° Southeast 494 568 37,000  Level FlightAware
07:53AM 39.9540 21.5700 139° Southeast 493 567 37,000  Level FlightAware
07:53AM 39.8830 21.6500 139° Southeast 493 567 37,000  Level FlightAware
07:54AM 39.8050 21.7390 139° Southeast 495 570 37,000  Level FlightAware
07:55AM 39.7370 21.8160 139° Southeast 496 571 37,000  Level FlightAware
07:55AM 39.6650 21.8960 139° Southeast 497 572 37,000  Level FlightAware
07:56AM 39.5860 21.9850 139° Southeast 498 573 37,000  Level FlightAware
07:57AM 39.5150 22.0650 139° Southeast 498 573 37,000  Level FlightAware
07:58AM 39.4360 22.1520 140° Southeast 496 571 37,000  Level FlightAware
07:58AM 39.3650 22.2310 139° Southeast 498 573 37,000  Level FlightAware
07:59AM 39.2950 22.3090 139° Southeast 498 573 37,000  Level FlightAware
08:00AM 39.2150 22.3970 140° Southeast 504 580 37,000  Level FlightAware
08:00AM 39.1400 22.4790 140° Southeast 502 578 37,000  Level FlightAware
08:01AM 39.0640 22.5620 140° Southeast 503 579 37,000  Level FlightAware
08:02AM 38.9920 22.6400 140° Southeast 504 580 37,000  Level FlightAware
08:02AM 38.9100 22.7300 139° Southeast 505 581 37,000  Level FlightAware
08:03AM 38.8340 22.8120 140° Southeast 505 581 37,000  Level FlightAware
08:04AM 38.7680 22.8830 140° Southeast 506 582 37,000  Level FlightAware
08:05AM 38.6880 22.9690 140° Southeast 507 583 37,000  Level FlightAware
08:05AM 38.6080 23.0550 140° Southeast 508 585 37,000  Level FlightAware
08:06AM 38.5590 23.1080 140° Southeast 508 585 37,000  Level FlightAware
08:07AM 38.4590 23.2140 140° Southeast 509 586 37,000  Level FlightAware
08:07AM 38.3840 23.2940 140° Southeast 511 588 37,000  Level FlightAware
08:08AM 38.3110 23.3730 140° Southeast 512 589 37,000  Level FlightAware
08:09AM 38.2360 23.4520 140° Southeast 510 587 37,000  Level FlightAware
08:09AM 38.1550 23.5370 140° Southeast 510 587 37,000  Level FlightAware
08:10AM 38.0820 23.6140 140° Southeast 511 588 37,000  Level FlightAware
08:11AM 37.9840 23.7710 128° Southeast 526 605 37,000  Level FlightAware
08:12AM 37.9120 23.9090 123° Southeast 527 606 37,000  Level FlightAware
08:13AM 37.8450 24.0470 122° Southeast 516 594 37,000  Level FlightAware
08:14AM 37.7890 24.1590 122° Southeast 514 592 37,000  Level FlightAware
08:14AM 37.7360 24.2660 122° Southeast 511 588 37,000  Level FlightAware
08:15AM 37.6840 24.3680 123° Southeast 510 587 37,000  Level FlightAware
08:16AM 37.6340 24.4680 122° Southeast 509 586 37,000  Level FlightAware
08:16AM 37.5900 24.5540 123° Southeast 511 588 37,000  Level FlightAware
08:17AM 37.5240 24.6860 122° Southeast 516 594 37,000  Level FlightAware
08:18AM 37.4700 24.7900 123° Southeast 518 596 37,000  Level FlightAware
08:19AM 37.4170 24.8940 123° Southeast 519 597 37,000  Level FlightAware
08:19AM 37.3600 25.0060 123° Southeast 520 598 37,000  Level FlightAware
08:20AM 37.3160 25.0900 123° Southeast 521 600 37,000  Level FlightAware
08:21AM 37.2790 25.1610 123° Southeast 522 601 37,000  Level FlightAware
08:21AM 37.1980 25.3180 123° Southeast 524 603 37,000  Level FlightAware
08:22AM 37.1470 25.4170 123° Southeast 523 602 37,000  Level FlightAware
08:23AM 37.0910 25.5230 123° Southeast 522 601 37,000  Level FlightAware
08:23AM 37.0330 25.6350 123° Southeast 521 600 37,000  Level FlightAware
08:24AM 36.9710 25.7520 124° Southeast 523 602 37,000  Level FlightAware
08:25AM 36.9140 25.8590 124° Southeast 523 602 37,000  Level FlightAware
08:25AM 36.8810 25.9220 123° Southeast 524 603 37,000  Level FlightAware
08:26AM 36.8470 25.9840 124° Southeast 526 605 37,000  Level FlightAware
08:27AM 36.7610 26.1470 123° Southeast 529 609 37,000  Level FlightAware
08:28AM 36.6870 26.2840 124° Southeast 526 605 37,000  Level FlightAware
08:28AM 36.6330 26.3850 124° Southeast 525 604 37,000  Level FlightAware
08:29AM 36.5770 26.4890 124° Southeast 525 604 37,000  Level FlightAware
08:30AM 36.5260 26.5840 124° Southeast 524 603 37,000  Level FlightAware
08:30AM 36.4630 26.7010 124° Southeast 524 603 37,000  Level FlightAware
08:31AM 36.4050 26.8070 124° Southeast 526 605 37,000  Level FlightAware
08:32AM 36.3520 26.9040 124° Southeast 529 609 37,000  Level FlightAware
08:32AM 36.3050 26.9940 123° Southeast 530 610 37,000  Level FlightAware
08:33AM 36.2350 27.1200 125° Southeast 533 613 37,000  Level FlightAware
08:34AM 36.1920 27.2030 123° Southeast 533 613 37,000  Level FlightAware
08:35AM 36.1300 27.3150 124° Southeast 531 611 37,000  Level FlightAware
08:35AM 36.0870 27.3970 123° Southeast 531 611 37,000  Level FlightAware
08:36AM 36.0330 27.5010 123° Southeast 531 611 37,000  Level FlightAware
08:37AM 35.9920 27.5790 123° Southeast 531 611 37,000  Level FlightAware
08:37AM 35.9350 27.6870 123° Southeast 531 611 37,000  Level FlightAware
08:38AM 35.8070 27.8930 127° Southeast 524 603 37,000  Level FlightAware
08:39AM 35.7660 27.9670 124° Southeast 524 603 37,000  Level FlightAware
08:40AM 35.7030 28.0780 125° Southeast 528 608 37,000  Level FlightAware
08:41AM 35.6220 28.2230 124° Southeast 530 610 37,000  Level FlightAware
08:41AM 35.5590 28.3330 125° Southeast 530 610 37,000  Level FlightAware
08:42AM 35.5010 28.4340 125° Southeast 530 610 37,000  Level FlightAware
08:43AM 35.4450 28.5330 125° Southeast 530 610 37,000  Level FlightAware
08:43AM 35.3850 28.6370 125° Southeast 530 610 37,000  Level FlightAware
08:44AM 35.3450 28.7060 125° Southeast 531 611 37,000  Level FlightAware
08:45AM 35.2730 28.8330 125° Southeast 532 612 37,000  Level FlightAware
08:46AM 35.1620 29.0250 125° Southeast 532 612 37,000  Level FlightAware
08:47AM 35.1120 29.1100 126° Southeast 531 611 37,000  Level FlightAware
08:47AM 35.0580 29.2040 125° Southeast 531 611 37,000  Level FlightAware
08:49AM 34.9330 29.4180 125° Southeast 531 611 37,000  Level FlightAware
08:49AM 34.8740 29.5150 127° Southeast 37,000  Level FlightAware
08:50AM 34.8470 29.5610 126° Southeast 529 609 37,000  Level FlightAware
08:51AM 34.7520 29.7230 125° Southeast 527 606 37,000  Level FlightAware
08:52AM 34.6890 29.8290 126° Southeast 527 606 37,000  Level FlightAware
08:52AM 34.6370 29.9160 126° Southeast 525 604 37,000  Level FlightAware
08:53AM 34.5800 30.0160 125° Southeast 525 604 37,000  Level FlightAware
08:54AM 34.5210 30.1330 121° Southeast 531 611 37,000  Level FlightAware
08:54AM 34.4710 30.2410 119° Southeast 532 612 37,000  Level FlightAware
08:55AM 34.4180 30.3490 121° Southeast 531 611 37,000  Level FlightAware
08:56AM 34.3640 30.4610 120° Southeast 531 611 37,000  Level FlightAware
08:57AM 34.3060 30.5820 120° Southeast 534 615 37,000  Level FlightAware
08:57AM 34.2590 30.6780 121° Southeast 533 613 37,000  Level FlightAware
08:58AM 34.2050 30.7870 121° Southeast 533 613 37,000  Level FlightAware
08:59AM 34.1550 30.8900 120° Southeast 533 613 37,000  Level FlightAware
08:59AM 34.1010 30.9990 121° Southeast 529 609 37,000  Level FlightAware
09:00AM 34.0260 31.1530 120° Southeast 529 609 37,000  Level FlightAware
09:01AM 33.9600 31.2880 120° Southeast 534 615 37,000  Level FlightAware
09:02AM 33.9080 31.3930 121° Southeast 535 616 37,000  Level FlightAware
09:03AM 33.8580 31.4950 121° Southeast 535 616 37,000  Level FlightAware
09:03AM 33.8010 31.6100 121° Southeast 535 616 37,000  Level FlightAware
09:04AM 33.7490 31.7130 121° Southeast 534 615 37,000  Level FlightAware
09:05AM 33.6970 31.8170 121° Southeast 534 615 37,000  Level FlightAware
09:05AM 33.6410 31.9320 120° Southeast 529 609 37,000  Level FlightAware
09:06AM 33.5910 32.0320 121° Southeast 528 608 37,000  Level FlightAware
09:07AM 33.5560 32.1040 120° Southeast 527 606 37,000  Level FlightAware
09:07AM 33.4830 32.2520 121° Southeast 528 608 37,000  Level FlightAware
09:08AM 33.4180 32.3810 121° Southeast 528 608 37,000 -360 Level FlightAware
09:09AM 33.3650 32.4840 122° Southeast 507 583 36,500 -1,080 Descending FlightAware
09:10AM 33.2830 32.6450 121° Southeast 499 574 35,000 -1,620 Descending FlightAware
09:11AM 33.1900 32.8270 121° Southeast 483 556 32,600 -1,920 Descending FlightAware
09:12AM 33.1450 32.9150 121° Southeast 478 550 31,300 -1,380 Descending FlightAware
09:13AM 33.0860 33.0330 121° Southeast 467 537 30,400 -600 Descending FlightAware
09:14AM 33.0490 33.1090 120° Southeast 467 537 30,400  Level FlightAware
09:14AM 33.0140 33.1810 120° Southeast 467 537 30,400 -3,720 Level FlightAware
09:15AM 32.9440 33.3040 124° Southeast 435 501 25,300 -3,600 Descending FlightAware
09:16AM 32.9120 33.3650 122° Southeast 24,400 -1,920 Descending FlightAware
09:17AM 32.8540 33.4780 121° Southeast 408 470 22,600 -2,040 Descending FlightAware
09:17AM 32.8150 33.5530 122° Southeast 396 456 21,500 -1,200 Descending FlightAware
09:18AM 32.7760 33.6270 122° Southeast 374 430 21,000 -780 Descending FlightAware
09:19AM 32.7360 33.7050 121° Southeast 366 421 20,400 -1,260 Descending FlightAware
09:19AM 32.6990 33.7760 122° Southeast 361 415 19,200 -2,040 Descending FlightAware
09:20AM 32.6450 33.8780 122° Southeast 378 435 17,000 -2,280 Descending FlightAware
09:21AM 32.6030 33.9570 122° Southeast 390 449 15,300 -2,220 Descending FlightAware
09:22AM 32.5650 34.0290 122° Southeast 384 442 13,900 -2,220 Descending FlightAware
09:22AM 32.5270 34.1010 122° Southeast 381 438 12,400 -2,220 Descending FlightAware
09:23AM 32.4810 34.1780 125° Southeast 369 425 10,800 -1,380 Descending FlightAware
09:24AM 32.4330 34.2360 134° Southeast 327 376 10,400 -540 Descending FlightAware
09:25AM 32.3910 34.2860 135° Southeast 298 343 10,100 -720 Descending FlightAware
09:25AM 32.3780 34.3000 138° Southeast 296 341 9,800 -1,560 Descending FlightAware
09:25AM 32.3500 34.3340 134° Southeast 294 338 9,000 -1,500 Descending FlightAware
09:25AM 32.3380 34.3480 135° Southeast 292 336 8,800 -300 Descending FlightAware
09:26AM 32.3130 34.3780 135° Southeast 290 334 8,800  Level FlightAware
09:26AM 32.2930 34.4010 136° Southeast 290 334 8,800  Level FlightAware
09:27AM 32.2830 34.4120 137° Southeast 290 334 8,800  Level FlightAware
09:27AM 32.2440 34.4590 134° Southeast 290 334 8,800  Level FlightAware
09:30AM 32.0679 34.7386 115° Southeast  Level FlightAware Approximate
09:31AM 32.0000 34.8667 125° Southeast  Level FlightAware Approximate
09:32AM 32.0095 34.8769 125° Southeast  Level Estimated
09:33AM 32.0095 34.8769 125° Southeast  Level Estimated
09:34AM 32.0095 34.8769 125° Southeast  Level Estimated
09:35AM 32.0095 34.8769 125° Southeast  Level Estimated
09:36AM 32.0095 34.8769 125° Southeast  Level Estimated
09:37AM 32.0095 34.8769 125° Southeast  Level Estimated
09:38AM 32.0095 34.8769 125° Southeast  Level Estimated